Main page
METAR-TAF:

METAR-TAF

Airports :

Solenzara Air Base

Solenzara, France

latitude: 41-55N, longitude: 009-24E, elevation: 8 m

Current weather observation

The report was made 28 minutes ago, at 00:00 UTC
Wind 5 kt from the West
Temperature 9°C
Humidity 49%
Pressure 1016 hPa
Visibility 10 km or more
no clouds below 1500 m and no cumulonimbus

METAR: LFKS 190000Z AUTO 27005KT CAVOK 09/M01 Q1016

Time: 01:28 (00:28 UTC)

Forecast

The report was made 4 hours and 28 minutes ago, at 20:00 UTC
Forecast valid from 18 at 21 UTC to 19 at 21 UTC
Wind 5 kt from the Northeast
Visibility 10 km or more
no clouds below 1500 m and no cumulonimbus
Becoming
from 19 at 08 UTC to 19 at 09 UTC
Wind 10 kt from the North/Northeast with gusts up to 20 kt

TAF: LFKS 182000Z 1821/1921 05005KT CAVOK BECMG 1908/1909 02010G20KT

Weather observations and forecasts of more than 4000 airports (METAR and TAF reports).

The available stations are represented by yellow and red dots on the map.

Hover mouse over dot to see the name of the station.

Then click to see weather observations and forecasts.

To change the map : click on the green buttons with a black cross to zoom in, on the green button with a dash to zoom out, or on the green arrows for adjacent maps.


METAR-TAF: